sensor_id;sensor_type;location;lat;lon;timestamp;temperature;humidity
68924;DHT22;55961;52.156;20.942;2023-02-03T00:02:01;0.60;84.50
68924;DHT22;55961;52.156;20.942;2023-02-03T00:04:27;0.60;84.00
68924;DHT22;55961;52.156;20.942;2023-02-03T00:06:53;0.60;83.70
68924;DHT22;55961;52.156;20.942;2023-02-03T00:09:19;0.60;83.50
68924;DHT22;55961;52.156;20.942;2023-02-03T00:11:45;0.60;83.30
68924;DHT22;55961;52.156;20.942;2023-02-03T00:14:11;0.60;83.00
68924;DHT22;55961;52.156;20.942;2023-02-03T00:16:37;0.60;83.00
68924;DHT22;55961;52.156;20.942;2023-02-03T00:19:03;0.50;82.90
68924;DHT22;55961;52.156;20.942;2023-02-03T00:21:29;0.50;82.80
68924;DHT22;55961;52.156;20.942;2023-02-03T00:23:55;0.50;82.80
68924;DHT22;55961;52.156;20.942;2023-02-03T00:26:21;0.50;82.80
68924;DHT22;55961;52.156;20.942;2023-02-03T00:28:48;0.50;82.80
68924;DHT22;55961;52.156;20.942;2023-02-03T00:31:20;0.50;82.90
68924;DHT22;55961;52.156;20.942;2023-02-03T00:33:47;0.50;82.80
68924;DHT22;55961;52.156;20.942;2023-02-03T00:36:17;0.50;82.70
68924;DHT22;55961;52.156;20.942;2023-02-03T00:38:43;0.40;82.50
68924;DHT22;55961;52.156;20.942;2023-02-03T00:41:09;0.40;82.50
68924;DHT22;55961;52.156;20.942;2023-02-03T00:43:35;0.40;82.40
68924;DHT22;55961;52.156;20.942;2023-02-03T00:46:01;0.40;82.40
68924;DHT22;55961;52.156;20.942;2023-02-03T00:48:27;0.30;82.40
68924;DHT22;55961;52.156;20.942;2023-02-03T00:50:53;0.30;82.10
68924;DHT22;55961;52.156;20.942;2023-02-03T00:53:18;0.30;82.20
68924;DHT22;55961;52.156;20.942;2023-02-03T00:55:44;0.20;82.10
68924;DHT22;55961;52.156;20.942;2023-02-03T00:58:10;0.20;82.10
68924;DHT22;55961;52.156;20.942;2023-02-03T01:00:37;0.20;82.10
68924;DHT22;55961;52.156;20.942;2023-02-03T01:03:03;0.20;82.00
68924;DHT22;55961;52.156;20.942;2023-02-03T01:05:29;0.20;82.20
68924;DHT22;55961;52.156;20.942;2023-02-03T01:07:55;0.20;82.40
68924;DHT22;55961;52.156;20.942;2023-02-03T01:10:21;0.10;82.30
68924;DHT22;55961;52.156;20.942;2023-02-03T01:12:47;0.10;82.30
68924;DHT22;55961;52.156;20.942;2023-02-03T01:15:13;0.10;82.30
68924;DHT22;55961;52.156;20.942;2023-02-03T01:17:39;0.10;82.20
68924;DHT22;55961;52.156;20.942;2023-02-03T01:20:05;0.10;82.30
68924;DHT22;55961;52.156;20.942;2023-02-03T01:22:31;0.10;82.40
68924;DHT22;55961;52.156;20.942;2023-02-03T01:24:57;0.10;82.60
68924;DHT22;55961;52.156;20.942;2023-02-03T01:27:23;0.10;82.50
68924;DHT22;55961;52.156;20.942;2023-02-03T01:29:49;0.10;82.60
68924;DHT22;55961;52.156;20.942;2023-02-03T01:32:15;0.10;82.70
68924;DHT22;55961;52.156;20.942;2023-02-03T01:34:41;0.10;82.70
68924;DHT22;55961;52.156;20.942;2023-02-03T01:37:07;0.10;82.70
68924;DHT22;55961;52.156;20.942;2023-02-03T01:39:33;0.10;82.70
68924;DHT22;55961;52.156;20.942;2023-02-03T01:41:58;0.10;82.80
68924;DHT22;55961;52.156;20.942;2023-02-03T01:44:45;0.10;82.80
68924;DHT22;55961;52.156;20.942;2023-02-03T01:47:33;0.10;82.90
68924;DHT22;55961;52.156;20.942;2023-02-03T01:52:41;0.10;82.50
68924;DHT22;55961;52.156;20.942;2023-02-03T01:55:13;0.10;82.60
68924;DHT22;55961;52.156;20.942;2023-02-03T01:57:46;0.10;82.00
68924;DHT22;55961;52.156;20.942;2023-02-03T02:00:13;0.10;82.00
68924;DHT22;55961;52.156;20.942;2023-02-03T02:02:42;0.10;81.80
68924;DHT22;55961;52.156;20.942;2023-02-03T02:05:22;0.10;81.70
68924;DHT22;55961;52.156;20.942;2023-02-03T02:07:49;0.10;81.30
68924;DHT22;55961;52.156;20.942;2023-02-03T02:10:16;0.10;81.30
68924;DHT22;55961;52.156;20.942;2023-02-03T02:12:42;0.10;81.10
68924;DHT22;55961;52.156;20.942;2023-02-03T02:15:09;0.10;80.80
68924;DHT22;55961;52.156;20.942;2023-02-03T02:17:51;0.10;80.40
68924;DHT22;55961;52.156;20.942;2023-02-03T02:26:12;0.10;80.40
68924;DHT22;55961;52.156;20.942;2023-02-03T02:34:10;0.10;80.10
68924;DHT22;55961;52.156;20.942;2023-02-03T02:39:22;0.00;80.20
68924;DHT22;55961;52.156;20.942;2023-02-03T02:42:45;0.00;80.20
68924;DHT22;55961;52.156;20.942;2023-02-03T02:44:52;0.00;80.10
68924;DHT22;55961;52.156;20.942;2023-02-03T02:47:22;0.00;79.90
68924;DHT22;55961;52.156;20.942;2023-02-03T02:52:21;0.00;79.70
68924;DHT22;55961;52.156;20.942;2023-02-03T02:54:51;-0.10;79.60
68924;DHT22;55961;52.156;20.942;2023-02-03T02:57:20;-0.10;79.60
68924;DHT22;55961;52.156;20.942;2023-02-03T02:59:48;-0.10;79.60
68924;DHT22;55961;52.156;20.942;2023-02-03T03:02:14;-0.20;79.70
68924;DHT22;55961;52.156;20.942;2023-02-03T03:04:42;-0.20;79.90
68924;DHT22;55961;52.156;20.942;2023-02-03T03:07:14;-0.20;79.90
68924;DHT22;55961;52.156;20.942;2023-02-03T03:09:45;-0.30;80.10
68924;DHT22;55961;52.156;20.942;2023-02-03T03:12:19;-0.30;80.20
68924;DHT22;55961;52.156;20.942;2023-02-03T03:14:59;-0.30;80.30
68924;DHT22;55961;52.156;20.942;2023-02-03T03:17:41;-0.30;80.40
68924;DHT22;55961;52.156;20.942;2023-02-03T03:20:12;-0.40;80.40
68924;DHT22;55961;52.156;20.942;2023-02-03T03:22:49;-0.40;80.50
68924;DHT22;55961;52.156;20.942;2023-02-03T03:25:20;-0.50;80.60
68924;DHT22;55961;52.156;20.942;2023-02-03T03:27:53;-0.50;80.70
68924;DHT22;55961;52.156;20.942;2023-02-03T03:30:39;-0.50;80.70
68924;DHT22;55961;52.156;20.942;2023-02-03T03:33:06;-0.60;80.90
68924;DHT22;55961;52.156;20.942;2023-02-03T03:35:47;-0.60;81.00
68924;DHT22;55961;52.156;20.942;2023-02-03T03:38:22;-0.60;81.30
68924;DHT22;55961;52.156;20.942;2023-02-03T03:40:54;-0.60;81.40
68924;DHT22;55961;52.156;20.942;2023-02-03T03:43:28;-0.70;81.60
68924;DHT22;55961;52.156;20.942;2023-02-03T03:45:59;-0.80;81.60
68924;DHT22;55961;52.156;20.942;2023-02-03T03:48:35;-0.80;81.70
68924;DHT22;55961;52.156;20.942;2023-02-03T03:51:07;-0.80;81.70
68924;DHT22;55961;52.156;20.942;2023-02-03T03:53:35;-0.80;81.90
68924;DHT22;55961;52.156;20.942;2023-02-03T03:56:05;-0.90;81.90
68924;DHT22;55961;52.156;20.942;2023-02-03T03:58:33;-0.90;81.90
68924;DHT22;55961;52.156;20.942;2023-02-03T04:01:02;-0.90;81.90
68924;DHT22;55961;52.156;20.942;2023-02-03T04:03:38;-0.90;82.00
68924;DHT22;55961;52.156;20.942;2023-02-03T04:06:05;-1.00;82.00
68924;DHT22;55961;52.156;20.942;2023-02-03T04:08:31;-1.00;82.00
68924;DHT22;55961;52.156;20.942;2023-02-03T04:10:57;-1.00;82.00
68924;DHT22;55961;52.156;20.942;2023-02-03T04:13:23;-1.00;81.90
68924;DHT22;55961;52.156;20.942;2023-02-03T04:15:48;-1.00;82.00
68924;DHT22;55961;52.156;20.942;2023-02-03T04:18:15;-1.10;81.90
68924;DHT22;55961;52.156;20.942;2023-02-03T04:20:41;-1.10;81.80
68924;DHT22;55961;52.156;20.942;2023-02-03T04:23:08;-1.10;81.80
68924;DHT22;55961;52.156;20.942;2023-02-03T04:25:34;-1.20;81.70
68924;DHT22;55961;52.156;20.942;2023-02-03T04:28:01;-1.20;81.90
68924;DHT22;55961;52.156;20.942;2023-02-03T04:30:26;-1.20;81.90
68924;DHT22;55961;52.156;20.942;2023-02-03T04:33:03;-1.20;81.80
68924;DHT22;55961;52.156;20.942;2023-02-03T04:35:29;-1.20;81.90
68924;DHT22;55961;52.156;20.942;2023-02-03T04:37:55;-1.30;81.90
68924;DHT22;55961;52.156;20.942;2023-02-03T04:40:21;-1.30;82.00
68924;DHT22;55961;52.156;20.942;2023-02-03T04:42:47;-1.30;82.10
68924;DHT22;55961;52.156;20.942;2023-02-03T04:45:21;-1.30;82.30
68924;DHT22;55961;52.156;20.942;2023-02-03T04:48:14;-1.30;82.60
68924;DHT22;55961;52.156;20.942;2023-02-03T04:50:44;-1.40;82.80
68924;DHT22;55961;52.156;20.942;2023-02-03T04:53:12;-1.40;82.90
68924;DHT22;55961;52.156;20.942;2023-02-03T04:55:38;-1.40;83.10
68924;DHT22;55961;52.156;20.942;2023-02-03T04:58:04;-1.40;83.20
68924;DHT22;55961;52.156;20.942;2023-02-03T05:00:31;-1.40;83.40
68924;DHT22;55961;52.156;20.942;2023-02-03T05:02:57;-1.40;83.60
68924;DHT22;55961;52.156;20.942;2023-02-03T05:05:23;-1.40;83.80
68924;DHT22;55961;52.156;20.942;2023-02-03T05:07:49;-1.50;84.00
68924;DHT22;55961;52.156;20.942;2023-02-03T05:10:15;-1.40;84.20
68924;DHT22;55961;52.156;20.942;2023-02-03T05:12:41;-1.50;84.50
68924;DHT22;55961;52.156;20.942;2023-02-03T05:15:07;-1.50;84.40
68924;DHT22;55961;52.156;20.942;2023-02-03T05:17:33;-1.50;84.70
68924;DHT22;55961;52.156;20.942;2023-02-03T05:20:03;-1.50;84.70
68924;DHT22;55961;52.156;20.942;2023-02-03T05:22:30;-1.50;84.90
68924;DHT22;55961;52.156;20.942;2023-02-03T05:24:55;-1.50;85.00
68924;DHT22;55961;52.156;20.942;2023-02-03T05:27:21;-1.50;85.10
68924;DHT22;55961;52.156;20.942;2023-02-03T05:29:47;-1.50;85.20
68924;DHT22;55961;52.156;20.942;2023-02-03T05:32:13;-1.60;85.50
68924;DHT22;55961;52.156;20.942;2023-02-03T05:34:39;-1.60;85.30
68924;DHT22;55961;52.156;20.942;2023-02-03T05:37:05;-1.60;85.50
68924;DHT22;55961;52.156;20.942;2023-02-03T05:39:31;-1.60;85.60
68924;DHT22;55961;52.156;20.942;2023-02-03T05:41:57;-1.50;85.90
68924;DHT22;55961;52.156;20.942;2023-02-03T05:44:26;-1.60;86.00
68924;DHT22;55961;52.156;20.942;2023-02-03T05:46:53;-1.60;85.90
68924;DHT22;55961;52.156;20.942;2023-02-03T05:49:20;-1.60;86.00
68924;DHT22;55961;52.156;20.942;2023-02-03T05:51:49;-1.60;85.80
68924;DHT22;55961;52.156;20.942;2023-02-03T05:54:15;-1.50;86.00
68924;DHT22;55961;52.156;20.942;2023-02-03T05:56:41;-1.50;86.20
68924;DHT22;55961;52.156;20.942;2023-02-03T05:59:07;-1.60;86.20
68924;DHT22;55961;52.156;20.942;2023-02-03T06:01:34;-1.60;86.30
68924;DHT22;55961;52.156;20.942;2023-02-03T06:04:01;-1.50;86.20
68924;DHT22;55961;52.156;20.942;2023-02-03T06:06:28;-1.60;86.20
68924;DHT22;55961;52.156;20.942;2023-02-03T06:09:03;-1.50;86.20
68924;DHT22;55961;52.156;20.942;2023-02-03T06:11:29;-1.50;86.20
68924;DHT22;55961;52.156;20.942;2023-02-03T06:13:56;-1.50;86.40
68924;DHT22;55961;52.156;20.942;2023-02-03T06:16:27;-1.60;86.30
68924;DHT22;55961;52.156;20.942;2023-02-03T06:18:54;-1.50;86.30
68924;DHT22;55961;52.156;20.942;2023-02-03T06:21:24;-1.50;86.40
68924;DHT22;55961;52.156;20.942;2023-02-03T06:23:50;-1.60;86.30
68924;DHT22;55961;52.156;20.942;2023-02-03T06:26:16;-1.60;86.30
68924;DHT22;55961;52.156;20.942;2023-02-03T06:28:41;-1.50;86.40
68924;DHT22;55961;52.156;20.942;2023-02-03T06:31:08;-1.60;86.40
68924;DHT22;55961;52.156;20.942;2023-02-03T06:33:33;-1.50;86.40
68924;DHT22;55961;52.156;20.942;2023-02-03T06:35:59;-1.50;86.40
68924;DHT22;55961;52.156;20.942;2023-02-03T06:38:25;-1.50;86.30
68924;DHT22;55961;52.156;20.942;2023-02-03T06:40:51;-1.50;86.40
68924;DHT22;55961;52.156;20.942;2023-02-03T06:43:17;-1.50;86.40
68924;DHT22;55961;52.156;20.942;2023-02-03T06:45:44;-1.60;86.40
68924;DHT22;55961;52.156;20.942;2023-02-03T06:48:12;-1.60;86.50
68924;DHT22;55961;52.156;20.942;2023-02-03T06:50:40;-1.60;86.60
68924;DHT22;55961;52.156;20.942;2023-02-03T06:53:06;-1.60;86.50
68924;DHT22;55961;52.156;20.942;2023-02-03T06:55:32;-1.60;86.50
68924;DHT22;55961;52.156;20.942;2023-02-03T06:57:58;-1.60;86.60
68924;DHT22;55961;52.156;20.942;2023-02-03T07:00:24;-1.50;86.70
68924;DHT22;55961;52.156;20.942;2023-02-03T07:02:54;-1.50;86.80
68924;DHT22;55961;52.156;20.942;2023-02-03T07:05:22;-1.50;86.80
68924;DHT22;55961;52.156;20.942;2023-02-03T07:07:49;-1.50;86.90
68924;DHT22;55961;52.156;20.942;2023-02-03T07:10:15;-1.50;86.90
68924;DHT22;55961;52.156;20.942;2023-02-03T07:12:41;-1.50;86.90
68924;DHT22;55961;52.156;20.942;2023-02-03T07:15:08;-1.40;87.00
68924;DHT22;55961;52.156;20.942;2023-02-03T07:17:34;-1.40;87.00
68924;DHT22;55961;52.156;20.942;2023-02-03T07:20:00;-1.40;86.90
68924;DHT22;55961;52.156;20.942;2023-02-03T07:22:26;-1.40;86.90
68924;DHT22;55961;52.156;20.942;2023-02-03T07:24:52;-1.40;86.90
68924;DHT22;55961;52.156;20.942;2023-02-03T07:27:17;-1.40;86.90
68924;DHT22;55961;52.156;20.942;2023-02-03T07:29:45;-1.40;86.90
68924;DHT22;55961;52.156;20.942;2023-02-03T07:32:11;-1.30;87.10
68924;DHT22;55961;52.156;20.942;2023-02-03T07:34:37;-1.30;86.80
68924;DHT22;55961;52.156;20.942;2023-02-03T07:37:02;-1.30;86.40
68924;DHT22;55961;52.156;20.942;2023-02-03T07:39:28;-1.20;86.50
68924;DHT22;55961;52.156;20.942;2023-02-03T07:41:54;-1.20;86.30
68924;DHT22;55961;52.156;20.942;2023-02-03T07:44:21;-1.20;86.30
68924;DHT22;55961;52.156;20.942;2023-02-03T07:46:47;-1.20;86.40
68924;DHT22;55961;52.156;20.942;2023-02-03T07:49:13;-1.10;86.30
68924;DHT22;55961;52.156;20.942;2023-02-03T07:51:39;-1.10;86.00
68924;DHT22;55961;52.156;20.942;2023-02-03T07:54:06;-1.10;85.60
68924;DHT22;55961;52.156;20.942;2023-02-03T07:56:32;-1.00;85.60
68924;DHT22;55961;52.156;20.942;2023-02-03T07:58:59;-1.00;85.50
68924;DHT22;55961;52.156;20.942;2023-02-03T08:01:25;-1.00;85.30
68924;DHT22;55961;52.156;20.942;2023-02-03T08:03:51;-0.90;84.70
68924;DHT22;55961;52.156;20.942;2023-02-03T08:06:17;-0.90;84.30
68924;DHT22;55961;52.156;20.942;2023-02-03T08:08:43;-0.90;84.20
68924;DHT22;55961;52.156;20.942;2023-02-03T08:11:09;-0.80;83.70
68924;DHT22;55961;52.156;20.942;2023-02-03T08:13:35;-0.80;83.50
68924;DHT22;55961;52.156;20.942;2023-02-03T08:16:01;-0.70;83.10
68924;DHT22;55961;52.156;20.942;2023-02-03T08:18:27;-0.70;82.60
68924;DHT22;55961;52.156;20.942;2023-02-03T08:20:53;-0.70;82.20
68924;DHT22;55961;52.156;20.942;2023-02-03T08:23:19;-0.60;82.00
68924;DHT22;55961;52.156;20.942;2023-02-03T08:25:50;-0.60;82.00
68924;DHT22;55961;52.156;20.942;2023-02-03T08:28:16;-0.50;81.90
68924;DHT22;55961;52.156;20.942;2023-02-03T08:30:42;-0.50;81.60
68924;DHT22;55961;52.156;20.942;2023-02-03T08:33:08;-0.50;81.20
68924;DHT22;55961;52.156;20.942;2023-02-03T08:35:33;-0.40;80.30
68924;DHT22;55961;52.156;20.942;2023-02-03T08:37:59;-0.40;79.90
68924;DHT22;55961;52.156;20.942;2023-02-03T08:40:25;-0.30;79.80
68924;DHT22;55961;52.156;20.942;2023-02-03T08:42:52;-0.30;79.20
68924;DHT22;55961;52.156;20.942;2023-02-03T08:45:17;-0.30;78.90
68924;DHT22;55961;52.156;20.942;2023-02-03T08:47:44;-0.20;78.60
68924;DHT22;55961;52.156;20.942;2023-02-03T08:50:10;-0.20;78.00
68924;DHT22;55961;52.156;20.942;2023-02-03T08:52:36;-0.20;77.90
68924;DHT22;55961;52.156;20.942;2023-02-03T08:55:02;-0.10;77.70
68924;DHT22;55961;52.156;20.942;2023-02-03T08:57:35;-0.10;77.30
68924;DHT22;55961;52.156;20.942;2023-02-03T09:00:03;-0.10;76.90
68924;DHT22;55961;52.156;20.942;2023-02-03T09:02:30;0.00;77.00
68924;DHT22;55961;52.156;20.942;2023-02-03T09:04:57;0.00;76.50
68924;DHT22;55961;52.156;20.942;2023-02-03T09:07:23;0.00;76.60
68924;DHT22;55961;52.156;20.942;2023-02-03T09:09:50;0.00;76.00
68924;DHT22;55961;52.156;20.942;2023-02-03T09:12:16;0.10;75.50
68924;DHT22;55961;52.156;20.942;2023-02-03T09:14:42;0.10;75.30
68924;DHT22;55961;52.156;20.942;2023-02-03T09:17:09;0.20;75.30
68924;DHT22;55961;52.156;20.942;2023-02-03T09:19:36;0.20;74.20
68924;DHT22;55961;52.156;20.942;2023-02-03T09:22:08;0.20;73.70
68924;DHT22;55961;52.156;20.942;2023-02-03T09:24:34;0.30;73.70
68924;DHT22;55961;52.156;20.942;2023-02-03T09:27:00;0.30;74.00
68924;DHT22;55961;52.156;20.942;2023-02-03T09:29:26;0.30;73.20
68924;DHT22;55961;52.156;20.942;2023-02-03T09:31:52;0.40;73.20
68924;DHT22;55961;52.156;20.942;2023-02-03T09:34:19;0.40;72.30
68924;DHT22;55961;52.156;20.942;2023-02-03T09:36:46;0.40;72.20
68924;DHT22;55961;52.156;20.942;2023-02-03T09:39:12;0.50;71.60
68924;DHT22;55961;52.156;20.942;2023-02-03T09:42:18;0.50;71.50
68924;DHT22;55961;52.156;20.942;2023-02-03T09:47:33;0.60;71.20
68924;DHT22;55961;52.156;20.942;2023-02-03T09:50:02;0.60;70.30
68924;DHT22;55961;52.156;20.942;2023-02-03T09:52:32;0.70;70.20
68924;DHT22;55961;52.156;20.942;2023-02-03T09:55:43;0.70;70.00
68924;DHT22;55961;52.156;20.942;2023-02-03T09:58:12;0.70;70.30
68924;DHT22;55961;52.156;20.942;2023-02-03T10:00:44;0.80;69.60
68924;DHT22;55961;52.156;20.942;2023-02-03T10:06:11;0.90;69.90
68924;DHT22;55961;52.156;20.942;2023-02-03T10:08:55;0.90;69.60
68924;DHT22;55961;52.156;20.942;2023-02-03T10:19:21;1.20;68.90
68924;DHT22;55961;52.156;20.942;2023-02-03T10:21:52;1.30;68.10
68924;DHT22;55961;52.156;20.942;2023-02-03T10:26:51;1.40;66.90
68924;DHT22;55961;52.156;20.942;2023-02-03T10:31:46;1.50;66.90
68924;DHT22;55961;52.156;20.942;2023-02-03T10:34:15;1.50;67.00
68924;DHT22;55961;52.156;20.942;2023-02-03T10:39:46;1.60;66.60
68924;DHT22;55961;52.156;20.942;2023-02-03T10:42:13;1.60;66.10
68924;DHT22;55961;52.156;20.942;2023-02-03T10:44:50;1.60;66.60
68924;DHT22;55961;52.156;20.942;2023-02-03T10:47:37;1.60;65.90
68924;DHT22;55961;52.156;20.942;2023-02-03T10:50:25;1.60;66.30
68924;DHT22;55961;52.156;20.942;2023-02-03T10:55:48;1.60;66.10
68924;DHT22;55961;52.156;20.942;2023-02-03T10:58:22;1.60;66.10
68924;DHT22;55961;52.156;20.942;2023-02-03T11:01:11;1.60;66.40
68924;DHT22;55961;52.156;20.942;2023-02-03T11:03:40;1.60;66.90
68924;DHT22;55961;52.156;20.942;2023-02-03T11:06:10;1.60;66.50
68924;DHT22;55961;52.156;20.942;2023-02-03T11:08:40;1.60;66.40
68924;DHT22;55961;52.156;20.942;2023-02-03T11:11:08;1.50;66.90
68924;DHT22;55961;52.156;20.942;2023-02-03T11:13:37;1.50;67.40
68924;DHT22;55961;52.156;20.942;2023-02-03T11:16:15;1.50;67.20
68924;DHT22;55961;52.156;20.942;2023-02-03T11:19:17;1.50;67.10
68924;DHT22;55961;52.156;20.942;2023-02-03T11:21:49;1.50;67.10
68924;DHT22;55961;52.156;20.942;2023-02-03T11:24:26;1.40;66.80
68924;DHT22;55961;52.156;20.942;2023-02-03T11:27:04;1.40;67.40
68924;DHT22;55961;52.156;20.942;2023-02-03T11:30:09;1.40;67.30
68924;DHT22;55961;52.156;20.942;2023-02-03T11:32:39;1.40;67.40
68924;DHT22;55961;52.156;20.942;2023-02-03T11:35:26;1.30;67.30
68924;DHT22;55961;52.156;20.942;2023-02-03T11:38:00;1.30;67.90
68924;DHT22;55961;52.156;20.942;2023-02-03T11:40:31;1.30;67.10
68924;DHT22;55961;52.156;20.942;2023-02-03T11:43:00;1.30;67.40
68924;DHT22;55961;52.156;20.942;2023-02-03T11:51:05;1.30;67.20
68924;DHT22;55961;52.156;20.942;2023-02-03T11:59:45;1.30;68.00
68924;DHT22;55961;52.156;20.942;2023-02-03T12:13:44;1.30;66.70
68924;DHT22;55961;52.156;20.942;2023-02-03T12:22:45;1.30;66.40
68924;DHT22;55961;52.156;20.942;2023-02-03T12:30:51;1.30;66.40
68924;DHT22;55961;52.156;20.942;2023-02-03T12:33:29;1.30;66.20
68924;DHT22;55961;52.156;20.942;2023-02-03T12:36:26;1.30;66.10
68924;DHT22;55961;52.156;20.942;2023-02-03T12:39:24;1.30;67.10
68924;DHT22;55961;52.156;20.942;2023-02-03T12:41:59;1.30;67.00
68924;DHT22;55961;52.156;20.942;2023-02-03T12:44:34;1.30;67.00
68924;DHT22;55961;52.156;20.942;2023-02-03T12:47:15;1.30;66.70
68924;DHT22;55961;52.156;20.942;2023-02-03T12:52:41;1.30;67.00
68924;DHT22;55961;52.156;20.942;2023-02-03T12:58:51;1.30;67.20
68924;DHT22;55961;52.156;20.942;2023-02-03T13:01:37;1.30;67.80
68924;DHT22;55961;52.156;20.942;2023-02-03T13:04:32;1.20;68.50
68924;DHT22;55961;52.156;20.942;2023-02-03T13:10:11;1.20;70.40
68924;DHT22;55961;52.156;20.942;2023-02-03T13:12:42;1.10;71.10
68924;DHT22;55961;52.156;20.942;2023-02-03T13:15:39;1.10;71.60
68924;DHT22;55961;52.156;20.942;2023-02-03T13:18:14;1.00;71.70
68924;DHT22;55961;52.156;20.942;2023-02-03T13:20:44;1.00;72.30
68924;DHT22;55961;52.156;20.942;2023-02-03T13:23:13;1.00;73.20
68924;DHT22;55961;52.156;20.942;2023-02-03T13:25:48;0.90;74.00
68924;DHT22;55961;52.156;20.942;2023-02-03T13:32:15;0.80;76.20
68924;DHT22;55961;52.156;20.942;2023-02-03T13:40:10;0.60;79.60
68924;DHT22;55961;52.156;20.942;2023-02-03T13:42:45;0.50;80.40
68924;DHT22;55961;52.156;20.942;2023-02-03T13:45:35;0.50;81.40
68924;DHT22;55961;52.156;20.942;2023-02-03T13:50:40;0.30;82.90
68924;DHT22;55961;52.156;20.942;2023-02-03T13:53:18;0.20;83.40
68924;DHT22;55961;52.156;20.942;2023-02-03T13:55:54;0.20;84.00
68924;DHT22;55961;52.156;20.942;2023-02-03T14:06:07;0.00;85.70
68924;DHT22;55961;52.156;20.942;2023-02-03T14:16:42;-0.10;86.80
68924;DHT22;55961;52.156;20.942;2023-02-03T14:19:53;-0.10;87.10
68924;DHT22;55961;52.156;20.942;2023-02-03T14:22:41;-0.10;87.30
68924;DHT22;55961;52.156;20.942;2023-02-03T14:25:07;-0.10;87.60
68924;DHT22;55961;52.156;20.942;2023-02-03T14:27:33;-0.20;87.80
68924;DHT22;55961;52.156;20.942;2023-02-03T14:30:11;-0.20;87.70
68924;DHT22;55961;52.156;20.942;2023-02-03T14:32:57;-0.20;88.00
68924;DHT22;55961;52.156;20.942;2023-02-03T14:35:36;-0.20;88.20
68924;DHT22;55961;52.156;20.942;2023-02-03T14:38:08;-0.20;88.20
68924;DHT22;55961;52.156;20.942;2023-02-03T14:40:53;-0.20;88.40
68924;DHT22;55961;52.156;20.942;2023-02-03T14:57:26;-0.20;88.70
68924;DHT22;55961;52.156;20.942;2023-02-03T15:00:26;-0.20;88.70
68924;DHT22;55961;52.156;20.942;2023-02-03T15:07:59;-0.20;89.00
68924;DHT22;55961;52.156;20.942;2023-02-03T15:10:45;-0.20;89.20
68924;DHT22;55961;52.156;20.942;2023-02-03T15:13:25;-0.20;89.30
68924;DHT22;55961;52.156;20.942;2023-02-03T15:15:58;-0.30;89.40
68924;DHT22;55961;52.156;20.942;2023-02-03T15:18:33;-0.30;89.60
68924;DHT22;55961;52.156;20.942;2023-02-03T15:21:03;-0.20;89.60
68924;DHT22;55961;52.156;20.942;2023-02-03T15:23:37;-0.30;89.50
68924;DHT22;55961;52.156;20.942;2023-02-03T15:26:13;-0.20;89.70
68924;DHT22;55961;52.156;20.942;2023-02-03T15:28:39;-0.20;89.60
68924;DHT22;55961;52.156;20.942;2023-02-03T15:31:20;-0.20;89.50
68924;DHT22;55961;52.156;20.942;2023-02-03T15:33:50;-0.20;89.50
68924;DHT22;55961;52.156;20.942;2023-02-03T15:36:40;-0.20;89.40
68924;DHT22;55961;52.156;20.942;2023-02-03T15:42:04;-0.30;89.50
68924;DHT22;55961;52.156;20.942;2023-02-03T15:44:44;-0.30;89.70
68924;DHT22;55961;52.156;20.942;2023-02-03T15:47:29;-0.30;89.80
68924;DHT22;55961;52.156;20.942;2023-02-03T15:50:05;-0.30;89.80
68924;DHT22;55961;52.156;20.942;2023-02-03T15:52:34;-0.30;90.00
68924;DHT22;55961;52.156;20.942;2023-02-03T15:55:52;-0.30;89.80
68924;DHT22;55961;52.156;20.942;2023-02-03T15:57:59;-0.30;90.00
68924;DHT22;55961;52.156;20.942;2023-02-03T16:00:32;-0.40;90.30
68924;DHT22;55961;52.156;20.942;2023-02-03T16:02:59;-0.30;90.40
68924;DHT22;55961;52.156;20.942;2023-02-03T16:05:30;-0.30;90.30
68924;DHT22;55961;52.156;20.942;2023-02-03T16:07:56;-0.30;90.10
68924;DHT22;55961;52.156;20.942;2023-02-03T16:10:54;-0.30;90.30
68924;DHT22;55961;52.156;20.942;2023-02-03T16:13:27;-0.30;90.50
68924;DHT22;55961;52.156;20.942;2023-02-03T16:16:13;-0.30;90.60
68924;DHT22;55961;52.156;20.942;2023-02-03T16:19:12;-0.30;90.60
68924;DHT22;55961;52.156;20.942;2023-02-03T16:21:59;-0.30;90.90
68924;DHT22;55961;52.156;20.942;2023-02-03T16:24:34;-0.30;90.90
68924;DHT22;55961;52.156;20.942;2023-02-03T16:35:54;-0.30;90.90
68924;DHT22;55961;52.156;20.942;2023-02-03T16:38:52;-0.30;91.10
68924;DHT22;55961;52.156;20.942;2023-02-03T16:41:37;-0.30;91.20
68924;DHT22;55961;52.156;20.942;2023-02-03T16:44:24;-0.30;91.10
68924;DHT22;55961;52.156;20.942;2023-02-03T16:47:24;-0.30;91.10
68924;DHT22;55961;52.156;20.942;2023-02-03T16:50:13;-0.30;91.10
68924;DHT22;55961;52.156;20.942;2023-02-03T16:52:58;-0.30;91.10
68924;DHT22;55961;52.156;20.942;2023-02-03T16:55:26;-0.40;91.10
68924;DHT22;55961;52.156;20.942;2023-02-03T16:58:02;-0.30;91.10
68924;DHT22;55961;52.156;20.942;2023-02-03T17:00:40;-0.30;91.00
68924;DHT22;55961;52.156;20.942;2023-02-03T17:03:42;-0.30;91.10
68924;DHT22;55961;52.156;20.942;2023-02-03T17:06:20;-0.30;91.30
68924;DHT22;55961;52.156;20.942;2023-02-03T17:09:20;-0.30;91.10
68924;DHT22;55961;52.156;20.942;2023-02-03T17:12:08;-0.30;91.20
68924;DHT22;55961;52.156;20.942;2023-02-03T17:14:34;-0.30;91.20
68924;DHT22;55961;52.156;20.942;2023-02-03T17:17:00;-0.30;91.20
68924;DHT22;55961;52.156;20.942;2023-02-03T17:19:25;-0.30;91.20
68924;DHT22;55961;52.156;20.942;2023-02-03T17:21:51;-0.30;91.20
68924;DHT22;55961;52.156;20.942;2023-02-03T17:24:17;-0.30;91.10
68924;DHT22;55961;52.156;20.942;2023-02-03T17:26:44;-0.20;91.10
68924;DHT22;55961;52.156;20.942;2023-02-03T17:29:10;-0.20;91.00
68924;DHT22;55961;52.156;20.942;2023-02-03T17:31:36;-0.20;91.00
68924;DHT22;55961;52.156;20.942;2023-02-03T17:34:02;-0.20;90.90
68924;DHT22;55961;52.156;20.942;2023-02-03T17:36:28;-0.20;90.90
68924;DHT22;55961;52.156;20.942;2023-02-03T17:38:55;-0.20;90.90
68924;DHT22;55961;52.156;20.942;2023-02-03T17:41:24;-0.20;90.90
68924;DHT22;55961;52.156;20.942;2023-02-03T17:43:52;-0.20;90.80
68924;DHT22;55961;52.156;20.942;2023-02-03T17:46:21;-0.20;90.90
68924;DHT22;55961;52.156;20.942;2023-02-03T17:48:47;-0.20;90.90
68924;DHT22;55961;52.156;20.942;2023-02-03T17:51:21;-0.20;90.90
68924;DHT22;55961;52.156;20.942;2023-02-03T17:53:51;-0.20;90.80
68924;DHT22;55961;52.156;20.942;2023-02-03T17:56:19;-0.20;90.60
68924;DHT22;55961;52.156;20.942;2023-02-03T17:58:45;-0.20;90.50
68924;DHT22;55961;52.156;20.942;2023-02-03T18:01:19;-0.20;90.60
68924;DHT22;55961;52.156;20.942;2023-02-03T18:03:46;-0.20;90.40
68924;DHT22;55961;52.156;20.942;2023-02-03T18:06:15;-0.10;90.50
68924;DHT22;55961;52.156;20.942;2023-02-03T18:08:41;-0.20;90.50
68924;DHT22;55961;52.156;20.942;2023-02-03T18:11:08;-0.10;90.30
68924;DHT22;55961;52.156;20.942;2023-02-03T18:13:35;-0.20;90.30
68924;DHT22;55961;52.156;20.942;2023-02-03T18:16:05;-0.10;90.40